Data for 07/25/2017

Time Sea-Level Adjusted Pressure Absolute Pressure Temperature Relative Humidity Dew Point   
(mb) (inHg) (mb) (inHg) (C) (F) (%) (C) (F)
00:05 1020 30.12 849 25.07 19.6 67.3 40 6 42.7
00:10 1020 30.12 849 25.07 19.7 67.4 44 7.2 45
00:15 1020 30.12 849 25.07 19.3 66.7 45 7.3 45.1
00:20 1020 30.12 849 25.07 19.2 66.5 46 7.5 45.5
00:25 1019 30.09 848 25.04 19.2 66.5 44 6.8 44.3
00:30 1019 30.09 849 25.07 19.5 67.2 42 6.4 43.5
00:35 1019 30.09 848 25.04 19.9 67.8 38 5.3 41.6
00:40 1019 30.09 848 25.04 20.3 68.6 34 4.3 39.7
00:45 1019 30.09 848 25.04 20.8 69.5 40 7 44.6
00:50 1019 30.09 848 25.04 20.5 68.9 38 5.9 42.6
00:55 1019 30.09 848 25.04 20.5 68.8 38 5.9 42.5
01:00 1019 30.09 848 25.04 20.4 68.8 39 6.2 43.2
01:05 1019 30.09 848 25.04 20.3 68.5 40 6.3 43.3
01:10 1019 30.09 848 25.04 20.2 68.3 40 6.4 43.5
01:15 1019 30.09 848 25.04 20.2 68.3 39 6 42.8
01:20 1019 30.09 848 25.04 20.1 68.2 41 6.5 43.8
01:25 1019 30.09 848 25.04 19.8 67.6 42 6.8 44.2
01:30 1019 30.09 848 25.04 19.1 66.4 45 7 44.6
01:35 1019 30.09 848 25.04 18.8 65.8 45 6.7 44.1
01:40 1019 30.09 849 25.07 18.8 65.8 46 6.9 44.5
01:45 1019 30.09 849 25.07 18.5 65.2 47 7.1 44.8
01:50 1020 30.12 849 25.07 18 64.5 49 7.2 45
01:55 1020 30.12 849 25.07 17.9 64.2 48 6.9 44.4
02:00 1020 30.12 849 25.07 17.9 64.1 47 6.4 43.6
02:05 1020 30.12 849 25.07 17.8 64.1 46 6 42.9
02:10 1020 30.12 849 25.07 18.2 64.7 43 5.4 41.7
02:15 1020 30.12 849 25.07 18.8 65.8 40 4.9 40.8
02:20 1020 30.12 849 25.07 19.2 66.5 40 5.4 41.7
02:25 1020 30.12 849 25.07 19 66.3 40 5.4 41.7
02:30 1020 30.12 849 25.07 18.9 65.9 44 6.5 43.8
02:35 1020 30.12 849 25.07 17.9 64.2 45 6.1 42.9
02:40 1020 30.12 849 25.07 17.7 63.8 45 5.8 42.5
02:45 1020 30.12 849 25.07 17.4 63.3 45 5.5 41.9
02:50 1020 30.12 849 25.07 17.4 63.3 45 5.3 41.6
02:55 1020 30.12 849 25.07 17.6 63.7 44 5.3 41.5
03:00 1020 30.12 849 25.07 17.3 63.2 47 5.9 42.6
03:05 1020 30.12 849 25.07 17 62.6 48 5.9 42.6
03:10 1020 30.12 849 25.07 16.7 62 49 6 42.7
03:15 1020 30.12 849 25.07 16.4 61.5 49 5.8 42.4
03:20 1020 30.12 849 25.07 16.4 61.4 48 5.4 41.7
03:25 1020 30.12 849 25.07 16.6 61.8 46 5.1 41.3
03:30 1020 30.12 849 25.07 17 62.7 44 4.9 40.8
03:35 1020 30.12 849 25.07 17.4 63.4 43 5 41
03:40 1020 30.12 849 25.07 17.3 63.1 46 5.6 42.2
03:45 1020 30.12 849 25.07 16.8 62.2 46 5.1 41.3
03:50 1020 30.12 849 25.07 17 62.6 45 5.1 41.1
03:55 1020 30.12 849 25.07 17.1 62.7 45 5.1 41.2
04:00 1020 30.12 849 25.07 17.2 62.9 46 5.5 41.9
04:05 1020 30.12 849 25.07 16.9 62.3 47 5.7 42.3
04:10 1020 30.12 849 25.07 16.5 61.8 50 6.1 43
04:15 1020 30.12 849 25.07 16.2 61.1 50 6 42.7
04:20 1020 30.12 849 25.07 16.1 61 51 5.9 42.7
04:25 1020 30.12 849 25.07 15.9 60.6 51 5.9 42.6
04:30 1020 30.12 849 25.07 16 60.8 49 5.5 41.8
04:35 1020 30.12 849 25.07 16.2 61.1 48 5.3 41.5
04:40 1020 30.12 849 25.07 16.3 61.3 48 5.4 41.8
04:45 1020 30.12 849 25.07 16.1 61 49 5.4 41.7
04:50 1020 30.12 849 25.07 16 60.7 49 5.5 41.8
04:55 1020 30.12 849 25.07 15.9 60.5 50 5.5 41.8
05:00 1020 30.12 850 25.1 15.9 60.5 49 5.3 41.5
05:05 1020 30.12 850 25.1 16.2 61.1 46 4.6 40.3
05:10 1021 30.15 850 25.1 16.4 61.6 48 5.6 42
05:15 1021 30.15 850 25.1 16 60.8 48 5.2 41.3
05:20 1021 30.15 850 25.1 16.1 61.1 49 5.5 41.9
05:25 1021 30.15 850 25.1 16.1 61 50 5.9 42.5
05:30 1021 30.15 850 25.1 15.8 60.4 55 6.8 44.2
05:35 1021 30.15 850 25.1 15.4 59.7 55 6.3 43.4
05:40 1021 30.15 850 25.1 15.3 59.5 55 6.3 43.4
05:45 1021 30.15 851 25.13 15.3 59.5 55 6.3 43.3
05:50 1021 30.15 851 25.13 15.4 59.6 54 6.3 43.3
05:55 1021 30.15 851 25.13 15.4 59.7 54 6.3 43.3
06:00 1022 30.18 851 25.13 15.5 59.8 54 6.4 43.4
06:05 1022 30.18 851 25.13 15.5 59.8 49 4.8 40.6
06:10 1022 30.18 851 25.13 15.5 60 47 4.4 39.9
06:15 1022 30.18 851 25.13 15.7 60.2 47 4.5 40
06:20 1022 30.18 851 25.13 15.8 60.5 49 5.2 41.3
06:25 1022 30.18 851 25.13 16.3 61.3 47 5.1 41.3
06:30 1022 30.18 851 25.13 16.7 62 44 4.6 40.3
06:35 1022 30.18 851 25.13 17.1 62.7 44 4.9 40.8
06:40 1022 30.18 851 25.13 17.2 63 43 4.7 40.4
06:45 1022 30.18 851 25.13 17.3 63.1 44 4.9 40.8
06:50 1022 30.18 851 25.13 17.3 63.1 44 4.9 40.9
06:55 1022 30.18 851 25.13 17.2 62.9 48 6.3 43.4
07:00 1022 30.18 851 25.13 16.3 61.4 54 7 44.6
07:05 1022 30.18 851 25.13 15.7 60.2 56 6.9 44.4
07:10 1022 30.18 851 25.13 15.7 60.3 55 6.8 44.3
07:15 1022 30.18 852 25.16 16.1 61 51 6.1 43
07:20 1022 30.18 852 25.16 16.6 61.9 46 5.2 41.3
07:25 1022 30.18 852 25.16 17 62.7 46 5.4 41.7
07:30 1022 30.18 852 25.16 17 62.7 45 5.1 41.2
07:35 1022 30.18 852 25.16 17 62.6 45 5.1 41.1
07:40 1022 30.18 852 25.16 16.8 62.2 45 4.9 40.8
07:45 1022 30.18 852 25.16 16.6 61.9 46 5 41
07:50 1022 30.18 852 25.16 16.6 61.8 45 4.7 40.5
07:55 1022 30.18 852 25.16 16.5 61.7 45 4.7 40.5
08:00 1022 30.18 852 25.16 16.4 61.6 45 4.6 40.2
08:05 1022 30.18 852 25.16 16.5 61.6 44 4.3 39.7
08:10 1022 30.18 852 25.16 16.4 61.6 44 4.3 39.7
08:15 1022 30.18 852 25.16 16.3 61.4 44 4 39.2
08:20 1022 30.18 852 25.16 16.3 61.3 42 3.5 38.3
08:25 1022 30.18 852 25.16 16.3 61.4 41 3.2 37.8
08:30 1022 30.18 851 25.13 16.3 61.3 42 3.6 38.4
08:35 1022 30.18 852 25.16 16.4 61.5 42 3.6 38.6
08:40 1023 30.21 852 25.16 16.4 61.5 41 3.1 37.6
08:45 1023 30.21 852 25.16 16.3 61.4 41 3.1 37.5
08:50 1022 30.18 852 25.16 16.3 61.3 41 3 37.4
08:55 1023 30.21 852 25.16 16.2 61.2 42 3.3 37.9
09:00 1023 30.21 852 25.16 16.3 61.3 41 3.1 37.7
09:05 1023 30.21 852 25.16 16.2 61.1 41 2.9 37.2
09:10 1023 30.21 852 25.16 16.1 61 40 2.7 36.9
09:15 1023 30.21 852 25.16 16.1 61 40 2.6 36.7
09:20 1023 30.21 852 25.16 16.1 60.9 39 2.3 36.2
09:25 1023 30.21 852 25.16 16.1 60.9 41 2.8 37
09:30 1023 30.21 852 25.16 16.1 60.9 43 3.5 38.4
09:35 1023 30.21 852 25.16 16.2 61.1 41 2.9 37.3
09:40 1023 30.21 852 25.16 16.2 61.2 41 2.9 37.3
09:45 1022 30.18 852 25.16 16.3 61.4 40 2.9 37.2
09:50 1022 30.18 852 25.16 16.4 61.6 41 3.2 37.8
09:55 1022 30.18 852 25.16 16.5 61.7 40 3.1 37.6
10:00 1022 30.18 852 25.16 16.6 61.9 40 3.2 37.8
10:05 1022 30.18 851 25.13 16.7 62 40 3.2 37.7
10:10 1022 30.18 851 25.13 16.8 62.2 40 3.1 37.6
10:15 1022 30.18 851 25.13 16.8 62.2 40 3.3 37.9
10:20 1022 30.18 851 25.13 16.9 62.4 40 3.4 38.1
10:25 1022 30.18 851 25.13 17.1 62.7 40 3.6 38.4
10:30 1022 30.18 851 25.13 17.1 62.8 39 3.3 38
10:35 1022 30.18 851 25.13 17.3 63.1 39 3.5 38.3
10:40 1022 30.18 851 25.13 17.4 63.4 39 3.6 38.4
10:45 1022 30.18 852 25.16 17.6 63.6 39 3.6 38.4
10:50 1023 30.21 852 25.16 18.1 64.5 38 3.8 38.8
10:55 1023 30.21 852 25.16 18.2 64.8 39 4 39.2
11:00 1022 30.18 852 25.16 18.9 65.9 36 3.5 38.4
11:05 1022 30.18 852 25.16 19.1 66.3 36 4 39.2
11:10 1022 30.18 851 25.13 18.9 65.9 36 3.7 38.6
11:15 1022 30.18 851 25.13 19 66.1 37 4.2 39.5
11:20 1022 30.18 852 25.16 18.9 65.9 37 4.1 39.4
11:25 1022 30.18 852 25.16 18.8 65.8 38 4.4 39.9
11:30 1022 30.18 852 25.16 18.7 65.6 39 4.6 40.3
11:35 1022 30.18 852 25.16 18.8 65.8 39 4.6 40.3
11:40 1022 30.18 852 25.16 18.7 65.6 39 4.5 40.1
11:45 1022 30.18 852 25.16 18.6 65.6 40 4.8 40.7
11:50 1022 30.18 852 25.16 18.6 65.5 39 4.7 40.5
11:55 1023 30.21 852 25.16 18.7 65.6 39 4.6 40.3
12:00 1023 30.21 852 25.16 18.7 65.7 39 4.7 40.5
12:05 1023 30.21 852 25.16 18.9 66 39 4.9 40.8
12:10 1022 30.18 852 25.16 18.7 65.7 40 5.1 41.1
12:15 1022 30.18 852 25.16 18.8 65.8 41 5.5 41.9
12:20 1022 30.18 852 25.16 18.7 65.6 40 5.1 41.2
12:25 1022 30.18 851 25.13 18.6 65.4 40 4.9 40.7
12:30 1022 30.18 851 25.13 18.6 65.5 40 5 41
12:35 1022 30.18 851 25.13 18.6 65.5 41 5.3 41.6
12:40 1022 30.18 851 25.13 18.6 65.4 43 5.9 42.7
12:45 1022 30.18 852 25.16 18.8 65.8 45 6.7 44.1
12:50 1022 30.18 851 25.13 18.5 65.4 44 6.3 43.4
12:55 1022 30.18 851 25.13 18.5 65.3 42 5.4 41.7
13:00 1022 30.18 852 25.16 18.5 65.4 42 5.4 41.7
13:05 1022 30.18 852 25.16 18.6 65.6 42 5.6 42.1
13:10 1022 30.18 851 25.13 18.7 65.7 42 5.7 42.2
13:15 1022 30.18 851 25.13 18.8 65.9 41 5.4 41.7
13:20 1022 30.18 851 25.13 19 66.1 42 5.8 42.5
13:25 1022 30.18 851 25.13 19.1 66.3 42 5.9 42.7
13:30 1022 30.18 851 25.13 19.1 66.4 41 5.8 42.4
13:35 1022 30.18 851 25.13 19.1 66.5 42 6.1 43
13:40 1022 30.18 851 25.13 19.1 66.3 42 5.9 42.6
13:45 1022 30.18 851 25.13 19 66.2 42 5.9 42.5
13:50 1022 30.18 851 25.13 18.9 66 44 6.4 43.5
13:55 1022 30.18 851 25.13 18.4 65.1 46 6.7 44
14:00 1022 30.18 851 25.13 18.3 64.9 46 6.7 44.1
14:05 1022 30.18 851 25.13 18.4 65.2 45 6.3 43.4
14:10 1022 30.18 851 25.13 18.5 65.2 44 6.1 43
14:15 1022 30.18 851 25.13 18.5 65.3 44 6.3 43.3
14:20 1022 30.18 851 25.13 18.7 65.6 43 6.1 42.9
14:25 1022 30.18 851 25.13 19 66.1 44 6.5 43.6
14:30 1022 30.18 851 25.13 19 66.3 45 6.9 44.4
14:35 1022 30.18 851 25.13 19.2 66.5 47 7.7 45.9
14:40 1022 30.18 851 25.13 19.2 66.5 47 7.8 46
14:45 1022 30.18 851 25.13 19.3 66.7 47 7.8 46
14:50 1022 30.18 851 25.13 19.5 67 45 7.5 45.4
14:55 1022 30.18 851 25.13 19.6 67.2 43 6.9 44.3
15:00 1022 30.18 851 25.13 19.6 67.3 43 6.7 44
15:05 1022 30.18 851 25.13 19.4 66.9 44 6.9 44.4
15:10 1022 30.18 851 25.13 19.4 66.9 46 7.7 45.9
15:15 1022 30.18 851 25.13 19.1 66.3 49 8.4 47.1
15:20 1022 30.18 851 25.13 19 66.3 47 7.7 45.8
15:25 1022 30.18 851 25.13 19.2 66.6 48 8 46.3
15:30 1022 30.18 851 25.13 19.3 66.8 46 7.6 45.6
15:35 1022 30.18 851 25.13 19.7 67.4 47 8.1 46.5
15:40 1022 30.18 851 25.13 19.8 67.7 45 7.6 45.7
15:45 1022 30.18 851 25.13 20.6 69.2 41 6.9 44.5
15:50 1021 30.15 851 25.13 21.2 70.2 40 7.3 45.2
15:55 1021 30.15 851 25.13 21.8 71.2 39 7.3 45.1
16:00 1021 30.15 851 25.13 21.8 71.3 39 7.6 45.7
16:05 1021 30.15 850 25.1 22.2 71.9 38 7.5 45.5
16:10 1021 30.15 850 25.1 22.5 72.4 38 7.6 45.7
16:15 1021 30.15 850 25.1 22.1 71.8 40 7.9 46.2
16:20 1021 30.15 850 25.1 22 71.7 39 7.8 46
16:25 1021 30.15 850 25.1 22 71.6 39 7.4 45.3
16:30 1021 30.15 850 25.1 22.1 71.8 38 7.4 45.3
16:35 1021 30.15 850 25.1 22.2 72 38 7.3 45.1
16:40 1021 30.15 850 25.1 22.1 71.8 38 7.3 45.2
16:45 1021 30.15 850 25.1 22.4 72.3 36 6.9 44.5
16:50 1021 30.15 850 25.1 22.8 73.1 35 6.8 44.2
16:55 1021 30.15 850 25.1 23.1 73.6 36 7.3 45.2
17:00 1021 30.15 850 25.1 22.9 73.3 37 7.5 45.4
17:05 1021 30.15 850 25.1 22.6 72.6 36 7.1 44.8
17:10 1021 30.15 850 25.1 22.7 72.9 36 7 44.7
17:15 1021 30.15 850 25.1 22.9 73.2 36 7.3 45.2
17:20 1021 30.15 850 25.1 23.2 73.8 35 7.2 45
17:25 1021 30.15 850 25.1 23.3 74 35 7.3 45.1
17:30 1021 30.15 850 25.1 23.3 74 35 7.2 45
17:35 1021 30.15 850 25.1 23.2 73.8 35 7.3 45.1
17:40 1021 30.15 850 25.1 23.3 74 36 7.5 45.5
17:45 1021 30.15 850 25.1 23 73.5 36 7.2 44.9
17:50 1021 30.15 850 25.1 23.1 73.5 35 6.9 44.4
17:55 1021 30.15 850 25.1 23 73.4 35 7 44.5
18:00 1020 30.12 850 25.1 22.9 73.3 36 7.1 44.8
18:05 1020 30.12 850 25.1 22.9 73.2 35 7 44.6
18:10 1020 30.12 850 25.1 22.9 73.1 36 7 44.7
18:15 1020 30.12 850 25.1 22.8 73.1 36 7.1 44.9
18:20 1020 30.12 850 25.1 22.5 72.5 36 7 44.7
18:25 1020 30.12 850 25.1 22.2 72 37 7.2 44.9
18:30 1020 30.12 850 25.1 21.9 71.5 38 7.2 44.9
18:35 1020 30.12 850 25.1 21.8 71.2 39 7.3 45.1
18:40 1020 30.12 850 25.1 21.7 71.1 39 7.4 45.2
18:45 1020 30.12 850 25.1 21.6 70.9 39 7.4 45.3
18:50 1020 30.12 850 25.1 21.6 70.9 39 7.3 45.1
18:55 1020 30.12 850 25.1 21.6 71 40 7.6 45.6
19:00 1020 30.12 850 25.1 21.5 70.7 40 7.4 45.3
19:05 1020 30.12 850 25.1 21.5 70.6 39 7.3 45.1
19:10 1020 30.12 850 25.1 21.4 70.5 40 7.4 45.3
19:15 1020 30.12 850 25.1 21.3 70.3 40 7.3 45.2
19:20 1020 30.12 850 25.1 21.2 70.1 40 7.1 44.7
19:25 1020 30.12 850 25.1 21.1 69.9 40 7.3 45.1
19:30 1020 30.12 850 25.1 20.8 69.5 41 7.1 44.9
19:35 1020 30.12 850 25.1 20.6 69.1 41 7.2 44.9
19:40 1021 30.15 850 25.1 20.3 68.6 42 7.1 44.7
19:45 1021 30.15 850 25.1 20.1 68.2 42 6.9 44.5
19:50 1021 30.15 850 25.1 20 68 42 6.8 44.3
19:55 1020 30.12 850 25.1 20 67.9 42 6.8 44.2
20:00 1020 30.12 850 25.1 19.9 67.7 42 6.8 44.2
20:05 1021 30.15 850 25.1 19.8 67.6 43 7 44.6
20:10 1021 30.15 850 25.1 19.6 67.3 43 6.9 44.5
20:15 1021 30.15 850 25.1 19.5 67.1 44 6.9 44.5
20:20 1021 30.15 850 25.1 19.2 66.6 45 7.1 44.8
20:25 1021 30.15 850 25.1 19 66.3 45 7.1 44.7
20:30 1021 30.15 850 25.1 18.9 66 46 7.1 44.8
20:35 1021 30.15 850 25.1 18.7 65.6 46 7.1 44.7
20:40 1021 30.15 850 25.1 18.5 65.3 47 7.1 44.8
20:45 1021 30.15 850 25.1 18.4 65 47 7.1 44.7
20:50 1021 30.15 850 25.1 18.2 64.8 48 7.1 44.8
20:55 1021 30.15 850 25.1 18.2 64.7 48 7 44.6
21:00 1021 30.15 850 25.1 18.2 64.7 48 7 44.5
21:05 1021 30.15 850 25.1 18.1 64.6 47 6.9 44.4
21:10 1021 30.15 850 25.1 18.2 64.7 47 6.8 44.2
21:15 1021 30.15 850 25.1 18.1 64.6 47 6.7 44.1
21:20 1021 30.15 850 25.1 18.2 64.7 47 6.9 44.3
21:25 1021 30.15 850 25.1 18.1 64.5 47 6.7 44.1
21:30 1021 30.15 850 25.1 18.1 64.7 47 6.8 44.3
21:35 1021 30.15 850 25.1 18.1 64.6 47 6.8 44.3
21:40 1021 30.15 851 25.13 18.1 64.6 47 6.8 44.3
21:45 1021 30.15 851 25.13 18.1 64.5 48 6.9 44.3
21:50 1021 30.15 851 25.13 18.1 64.5 47 6.8 44.2
21:55 1021 30.15 851 25.13 18.2 64.7 47 6.8 44.2
22:00 1021 30.15 851 25.13 18.2 64.8 47 6.7 44.1
22:05 1021 30.15 851 25.13 18.2 64.7 47 6.7 44.1
22:10 1021 30.15 851 25.13 18.2 64.7 47 6.7 44.1
22:15 1021 30.15 851 25.13 18.1 64.6 47 6.7 44
22:20 1021 30.15 851 25.13 18.1 64.6 47 6.7 44.1
22:25 1022 30.18 851 25.13 18 64.4 47 6.6 44
22:30 1021 30.15 851 25.13 18.2 64.7 46 6.6 43.9
22:35 1021 30.15 851 25.13 18.1 64.6 47 6.7 44.1
22:40 1021 30.15 851 25.13 18.2 64.7 46 6.6 43.9
22:45 1022 30.18 851 25.13 18.2 64.8 47 6.7 44.1
22:50 1022 30.18 851 25.13 18.2 64.8 47 6.8 44.3
22:55 1022 30.18 851 25.13 18.1 64.5 47 6.8 44.2
23:00 1022 30.18 851 25.13 17.9 64.2 48 6.8 44.2
23:05 1022 30.18 851 25.13 18 64.4 47 6.7 44
23:10 1022 30.18 851 25.13 18.2 64.7 47 6.7 44.1
23:15 1022 30.18 851 25.13 18.3 64.9 47 6.8 44.2
23:20 1022 30.18 851 25.13 18.2 64.8 47 6.9 44.4
23:25 1022 30.18 851 25.13 18.1 64.5 48 6.9 44.5
23:30 1022 30.18 851 25.13 18.1 64.5 48 6.9 44.4
23:35 1022 30.18 851 25.13 18.1 64.6 48 7 44.6
23:40 1022 30.18 851 25.13 18.2 64.7 48 7 44.6
23:45 1022 30.18 851 25.13 18.2 64.8 47 6.9 44.4
23:50 1022 30.18 851 25.13 18.2 64.7 48 7 44.6
23:55 1022 30.18 851 25.13 18 64.5 48 7.1 44.7
24:00 1022 30.18 851 25.13 17.9 64.2 49 7.1 44.8